createdAt,value
2019-04-10T00:04:36.965Z,142702.89
2019-04-10T00:09:33.047Z,142700.55
2019-04-10T00:14:28.975Z,142685.34
2019-04-10T00:19:24.928Z,142651.44
2019-04-10T00:24:21.945Z,142621.09
2019-04-10T00:29:18.275Z,142626.89
2019-04-10T00:34:14.232Z,142624.59
2019-04-10T00:39:10.567Z,142601.19
2019-04-10T00:44:07.715Z,142587.19
2019-04-10T00:49:03.848Z,142588.34
2019-04-10T00:54:01.263Z,142562.66
2019-04-10T00:58:57.578Z,142573.16
2019-04-10T01:03:53.918Z,142533.47
2019-04-10T01:08:51.038Z,142513.58
2019-04-10T01:13:47.446Z,142465.70
2019-04-10T01:18:43.642Z,142480.89
2019-04-10T01:23:47.264Z,142486.73
2019-04-10T01:28:43.298Z,142440.02
2019-04-10T01:33:39.615Z,142393.31
2019-04-10T01:38:35.609Z,142413.14
2019-04-10T01:43:31.537Z,142402.66
2019-04-10T01:48:27.976Z,142399.16
2019-04-10T01:53:24.103Z,142376.92
2019-04-10T01:58:21.829Z,142375.78
2019-04-10T02:03:18.100Z,142312.75
2019-04-10T02:08:16.058Z,142319.73
2019-04-10T02:13:11.969Z,142331.42
2019-04-10T02:18:08.862Z,142318.59
2019-04-10T02:23:05.843Z,142270.70
2019-04-10T02:28:02.773Z,142240.39
2019-04-10T02:32:59.784Z,142233.36
2019-04-10T02:37:56.648Z,142219.38
2019-04-10T02:42:54.713Z,142187.87
2019-04-10T02:47:51.036Z,142192.53
2019-04-10T02:52:50.110Z,142182.03
2019-04-10T02:57:45.958Z,142193.72
2019-04-10T03:02:42.959Z,142157.53
2019-04-10T03:07:40.341Z,142151.69
2019-04-10T03:12:38.562Z,142098.05
2019-04-10T03:17:34.940Z,142107.38
2019-04-10T03:22:31.096Z,142105.03
2019-04-10T03:27:28.035Z,142078.23
2019-04-10T03:32:44.458Z,142068.91
2019-04-10T03:37:39.056Z,142059.58
2019-04-10T03:42:35.016Z,142030.39
2019-04-10T03:47:31.334Z,142044.41
2019-04-10T03:52:27.490Z,142043.22
2019-04-10T03:57:24.613Z,142035.08
2019-04-10T04:02:21.718Z,142028.09
2019-04-10T04:07:18.220Z,142004.75
2019-04-10T04:12:14.737Z,142011.73
2019-04-10T04:17:11.536Z,142003.61
2019-04-10T04:22:10.125Z,141974.44
2019-04-10T04:27:08.968Z,141973.28
2019-04-10T04:32:06.922Z,141975.62
2019-04-10T04:37:05.072Z,141975.62
2019-04-10T04:42:01.652Z,141965.09
2019-04-10T04:46:59.137Z,141954.63
2019-04-10T04:51:56.018Z,141932.48
2019-04-10T04:56:52.555Z,141927.80
2019-04-10T05:01:48.900Z,141918.47
2019-04-10T05:06:45.835Z,141902.17
2019-04-10T05:11:42.687Z,141918.47
2019-04-10T05:16:39.554Z,141948.80
2019-04-10T05:21:35.636Z,142016.42
2019-04-10T05:26:32.338Z,141997.77
2019-04-10T05:31:28.303Z,142242.69
2019-04-10T05:36:24.197Z,142291.72
2019-04-10T05:41:20.121Z,142050.25
2019-04-10T05:46:16.514Z,142263.72
2019-04-10T05:51:12.692Z,142395.61
2019-04-10T05:56:08.615Z,142497.23
2019-04-10T06:01:06.045Z,142161.03
2019-04-10T06:06:02.175Z,142450.52
2019-04-10T06:10:58.254Z,142406.16
2019-04-10T06:15:55.090Z,142268.41
2019-04-10T06:20:51.159Z,142415.48
2019-04-10T06:25:47.828Z,142480.89
2019-04-10T06:30:43.935Z,142346.61
2019-04-10T06:35:39.948Z,142359.44
2019-04-10T06:40:35.963Z,142438.81
2019-04-10T06:45:31.890Z,142494.89
2019-04-10T06:50:29.427Z,142464.50
2019-04-10T06:55:25.659Z,142482.05
2019-04-10T07:00:21.588Z,142667.84
2019-04-10T07:05:17.509Z,142670.14
2019-04-10T07:10:26.134Z,142609.39
2019-04-10T07:15:14.628Z,142677.19
2019-04-10T07:20:11.587Z,142723.94
2019-04-10T07:25:10.366Z,142774.27
2019-04-10T07:30:09.732Z,142967.22
2019-04-10T07:35:08.858Z,143004.66
2019-04-10T07:40:06.062Z,142936.83
2019-04-10T07:45:04.074Z,142983.63
2019-04-10T07:50:02.185Z,142962.56
2019-04-10T07:54:58.698Z,142967.22
2019-04-10T07:59:54.825Z,142948.50
2019-04-10T08:04:51.659Z,142978.94
2019-04-10T08:09:47.705Z,142960.22
2019-04-10T08:14:44.271Z,143065.55
2019-04-10T08:19:41.154Z,143138.11
2019-04-10T08:24:37.147Z,143174.42
2019-04-10T08:29:33.073Z,143054.98
2019-04-10T08:34:29.026Z,143012.88
2019-04-10T08:39:35.318Z,143182.59
2019-04-10T08:44:22.920Z,143177.94
2019-04-10T08:49:18.841Z,143069.05
2019-04-10T08:54:16.199Z,143177.94
2019-04-10T08:59:12.346Z,143324.34
2019-04-10T09:04:08.277Z,143330.22
2019-04-10T09:09:05.835Z,143464.97
2019-04-10T09:14:01.780Z,143290.38
2019-04-10T09:18:57.927Z,143463.81
2019-04-10T09:23:57.433Z,143599.78
2019-04-10T09:28:53.392Z,143407.56
2019-04-10T09:33:49.574Z,143558.75
2019-04-10T09:38:45.586Z,143633.81
2019-04-10T09:43:42.157Z,143649.06
2019-04-10T09:48:38.141Z,143525.95
2019-04-10T09:53:37.185Z,143618.55
2019-04-10T09:58:33.970Z,143493.09
2019-04-10T10:03:30.325Z,143382.94
2019-04-10T10:08:26.862Z,143690.11
2019-04-10T10:13:23.550Z,143672.48
2019-04-10T10:18:19.568Z,143814.53
2019-04-10T10:23:19.891Z,143900.19
2019-04-10T10:28:15.982Z,143806.30
2019-04-10T10:33:13.126Z,143801.63
2019-04-10T10:38:09.307Z,143759.36
2019-04-10T10:43:05.233Z,143740.59
2019-04-10T10:48:03.231Z,143495.45
2019-04-10T10:53:00.317Z,143627.94
2019-04-10T10:57:57.577Z,143843.84
2019-04-10T11:02:54.422Z,143940.13
2019-04-10T11:07:55.821Z,144015.27
2019-04-10T11:12:54.194Z,143954.19
2019-04-10T11:17:52.120Z,144038.73
2019-04-10T11:22:51.338Z,144123.34
2019-04-10T11:27:51.549Z,144423.09
2019-04-10T11:32:50.744Z,143931.88
2019-04-10T11:42:48.463Z,143940.13
2019-04-10T11:47:47.488Z,143846.22
2019-04-10T11:57:46.939Z,143829.80
2019-04-10T12:02:45.871Z,143872.03
2019-04-10T12:08:09.559Z,143984.72
2019-04-10T12:12:39.025Z,143937.77
2019-04-10T12:17:35.836Z,144095.11
2019-04-10T12:22:31.936Z,144214.98
2019-04-10T12:27:27.893Z,144066.92
2019-04-10T12:32:24.762Z,144230.27
2019-04-10T12:37:20.955Z,144320.78
2019-04-10T12:42:16.957Z,144297.25
2019-04-10T12:47:13.427Z,144445.47
2019-04-10T12:52:10.190Z,144212.67
2019-04-10T12:57:06.473Z,144394.81
2019-04-10T13:02:02.931Z,144238.52
2019-04-10T13:06:59.079Z,144189.14
2019-04-10T13:11:55.077Z,144297.25
2019-04-10T13:16:52.193Z,143916.63
2019-04-10T13:21:48.176Z,143943.64
2019-04-10T13:26:44.117Z,143929.53
2019-04-10T13:31:40.144Z,144081.03
2019-04-10T13:36:36.171Z,144009.39
2019-04-10T13:41:32.422Z,144118.67
2019-04-10T13:46:28.965Z,144309.02
2019-04-10T13:51:25.484Z,144153.91
2019-04-10T13:56:21.578Z,144217.34
2019-04-10T14:01:19.679Z,144323.14
2019-04-10T14:06:17.129Z,144419.56
2019-04-10T14:11:13.318Z,144518.38
2019-04-10T14:16:09.349Z,144170.34
2019-04-10T14:21:11.061Z,144045.77
2019-04-10T14:26:22.547Z,144131.59
2019-04-10T14:31:20.650Z,144353.67
2019-04-10T14:36:16.681Z,144002.36
2019-04-10T14:41:13.652Z,144309.02
2019-04-10T14:46:10.327Z,144135.11
2019-04-10T14:51:06.439Z,144196.19
2019-04-10T14:56:04.060Z,144070.44
2019-04-10T15:01:02.669Z,144226.75
2019-04-10T15:06:01.148Z,144169.19
2019-04-10T15:11:00.343Z,144165.67
2019-04-10T15:15:58.729Z,144064.56
2019-04-10T15:20:56.680Z,144118.67
2019-04-10T15:25:52.667Z,144099.88
2019-04-10T15:30:48.686Z,144048.13
2019-04-10T15:35:44.792Z,144019.94
2019-04-10T15:40:42.011Z,144199.70
2019-04-10T15:45:38.050Z,144207.94
2019-04-10T15:50:34.670Z,144236.16
2019-04-10T15:55:32.188Z,144105.72
2019-04-10T16:00:29.381Z,143991.77
2019-04-10T16:05:25.761Z,144186.78
2019-04-10T16:10:26.544Z,144005.88
2019-04-10T16:15:22.669Z,144115.11
2019-04-10T16:20:21.652Z,144283.16
2019-04-10T16:25:22.399Z,144356.03
2019-04-10T16:30:20.343Z,144427.81
2019-04-10T16:35:16.807Z,144233.78
2019-04-10T16:40:18.538Z,144363.08
2019-04-10T16:45:17.618Z,144259.62
2019-04-10T16:50:14.860Z,144532.47
2019-04-10T16:55:13.633Z,144287.84
2019-04-10T17:00:14.158Z,144673.67
2019-04-10T17:05:10.213Z,144701.91
2019-04-10T17:10:15.969Z,144727.84
2019-04-10T17:20:26.653Z,144904.45
2019-04-10T17:25:24.334Z,144977.56
2019-04-10T17:30:21.984Z,144890.34
2019-04-10T17:35:19.313Z,144787.87
2019-04-10T17:40:28.515Z,144749.05
2019-04-10T17:45:15.136Z,144704.28
2019-04-10T17:50:14.166Z,144393.66
2019-04-10T17:55:13.398Z,144043.45
2019-04-10T18:00:20.926Z,143860.28
2019-04-10T18:05:18.195Z,143747.63
2019-04-10T18:10:14.758Z,143705.36
2019-04-10T18:15:11.490Z,143667.83
2019-04-10T18:20:08.403Z,143642.03
2019-04-10T18:25:05.578Z,143599.78
2019-04-10T18:30:01.881Z,143520.08
2019-04-10T18:34:58.454Z,143515.38
2019-04-10T18:39:55.000Z,143494.30
2019-04-10T18:44:51.182Z,143438.03
2019-04-10T18:49:47.546Z,143412.22
2019-04-10T18:54:44.243Z,143377.08
2019-04-10T18:59:58.791Z,143357.17
2019-04-10T19:05:09.828Z,143325.55
2019-04-10T19:10:12.788Z,143304.45
2019-04-10T19:15:10.728Z,143249.33
2019-04-10T19:20:08.908Z,143209.55
2019-04-10T19:25:08.186Z,143193.11
2019-04-10T19:30:08.779Z,143134.61
2019-04-10T19:35:06.626Z,143159.19
2019-04-10T19:40:05.244Z,143134.61
2019-04-10T19:45:05.622Z,143156.84
2019-04-10T19:50:03.515Z,143097.14
2019-04-10T19:54:59.692Z,143067.84
2019-04-10T19:59:56.288Z,143039.77
2019-04-10T20:04:56.990Z,143049.13
2019-04-10T20:09:54.948Z,143015.22
2019-04-10T20:14:53.248Z,143023.39
2019-04-10T20:19:52.609Z,142984.78
2019-04-10T20:24:50.363Z,142966.06
2019-04-10T20:29:47.705Z,142969.56
2019-04-10T20:34:45.245Z,142908.75
2019-04-10T20:39:42.745Z,142894.69
2019-04-10T20:44:39.205Z,142868.97
2019-04-10T20:49:36.443Z,142861.97
2019-04-10T20:54:35.040Z,142798.78
2019-04-10T20:59:33.355Z,142854.91
2019-04-10T21:04:34.594Z,142838.55
2019-04-10T21:09:32.068Z,142808.13
2019-04-10T21:14:29.670Z,142752.00
2019-04-10T21:19:26.959Z,142721.59
2019-04-10T21:24:23.930Z,142735.59
2019-04-10T21:29:26.068Z,142730.95
2019-04-10T21:34:24.327Z,142759.06
2019-04-10T21:39:21.185Z,142729.75
2019-04-10T21:44:18.281Z,142715.75
2019-04-10T21:49:15.500Z,142709.91
2019-04-10T21:54:12.478Z,142666.64
2019-04-10T21:59:09.038Z,142619.89
2019-04-10T22:04:06.344Z,142665.48
2019-04-10T22:09:12.621Z,142635.09
2019-04-10T22:14:10.923Z,142616.39
2019-04-10T22:19:10.518Z,142590.69
2019-04-10T22:24:07.395Z,142574.34
2019-04-10T22:29:03.659Z,142583.69
2019-04-10T22:34:00.755Z,142574.34
2019-04-10T22:38:56.821Z,142588.34
2019-04-10T22:43:52.840Z,142556.81
2019-04-10T22:48:49.980Z,142535.77
2019-04-10T22:53:50.994Z,142511.22
2019-04-10T22:58:46.996Z,142513.58
2019-04-10T23:03:43.247Z,142514.77
2019-04-10T23:08:39.897Z,142490.23
2019-04-10T23:13:36.249Z,142457.50
2019-04-10T23:18:32.376Z,142466.84
2019-04-10T23:23:30.859Z,142473.84
2019-04-10T23:28:27.330Z,142448.16
2019-04-10T23:33:23.902Z,142469.19
2019-04-10T23:38:19.919Z,142455.16
2019-04-10T23:43:18.189Z,142438.81
2019-04-10T23:48:14.838Z,142449.36
2019-04-10T23:53:12.021Z,142441.17
2019-04-10T23:58:08.000Z,142436.47
